sensor_id;sensor_type;location;lat;lon;timestamp;temperature;humidity
68257;DHT22;55069;51.568;4.656;2023-04-24T00:02:23;9.79;91.90
68257;DHT22;55069;51.568;4.656;2023-04-24T00:04:49;9.84;91.61
68257;DHT22;55069;51.568;4.656;2023-04-24T00:07:15;9.82;91.71
68257;DHT22;55069;51.568;4.656;2023-04-24T00:09:45;9.80;91.80
68257;DHT22;55069;51.568;4.656;2023-04-24T00:12:11;9.77;91.88
68257;DHT22;55069;51.568;4.656;2023-04-24T00:14:37;9.80;92.03
68257;DHT22;55069;51.568;4.656;2023-04-24T00:17:03;9.79;92.12
68257;DHT22;55069;51.568;4.656;2023-04-24T00:19:29;9.77;92.40
68257;DHT22;55069;51.568;4.656;2023-04-24T00:21:54;9.76;92.46
68257;DHT22;55069;51.568;4.656;2023-04-24T00:24:20;9.77;92.49
68257;DHT22;55069;51.568;4.656;2023-04-24T00:26:46;9.79;92.51
68257;DHT22;55069;51.568;4.656;2023-04-24T00:29:11;9.79;92.51
68257;DHT22;55069;51.568;4.656;2023-04-24T00:31:37;9.77;92.46
68257;DHT22;55069;51.568;4.656;2023-04-24T00:34:03;9.77;92.40
68257;DHT22;55069;51.568;4.656;2023-04-24T00:36:30;9.72;92.37
68257;DHT22;55069;51.568;4.656;2023-04-24T00:38:56;9.65;92.30
68257;DHT22;55069;51.568;4.656;2023-04-24T00:41:24;9.59;92.14
68257;DHT22;55069;51.568;4.656;2023-04-24T00:43:51;9.59;91.73
68257;DHT22;55069;51.568;4.656;2023-04-24T00:46:17;9.59;91.72
68257;DHT22;55069;51.568;4.656;2023-04-24T00:48:43;9.50;91.90
68257;DHT22;55069;51.568;4.656;2023-04-24T00:51:09;9.56;92.05
68257;DHT22;55069;51.568;4.656;2023-04-24T00:53:35;9.53;92.16
68257;DHT22;55069;51.568;4.656;2023-04-24T00:56:02;9.56;92.36
68257;DHT22;55069;51.568;4.656;2023-04-24T00:58:28;9.59;92.45
68257;DHT22;55069;51.568;4.656;2023-04-24T01:00:54;9.62;92.54
68257;DHT22;55069;51.568;4.656;2023-04-24T01:03:26;9.65;92.53
68257;DHT22;55069;51.568;4.656;2023-04-24T01:05:54;9.67;92.53
68257;DHT22;55069;51.568;4.656;2023-04-24T01:08:23;9.69;92.45
68257;DHT22;55069;51.568;4.656;2023-04-24T01:10:51;9.69;92.48
68257;DHT22;55069;51.568;4.656;2023-04-24T01:13:19;9.63;92.47
68257;DHT22;55069;51.568;4.656;2023-04-24T01:15:45;9.62;92.20
68257;DHT22;55069;51.568;4.656;2023-04-24T01:18:11;9.55;91.29
68257;DHT22;55069;51.568;4.656;2023-04-24T01:20:39;9.53;91.70
68257;DHT22;55069;51.568;4.656;2023-04-24T01:23:08;9.56;91.58
68257;DHT22;55069;51.568;4.656;2023-04-24T01:25:34;9.57;91.63
68257;DHT22;55069;51.568;4.656;2023-04-24T01:28:00;9.56;91.48
68257;DHT22;55069;51.568;4.656;2023-04-24T01:30:27;9.52;91.68
68257;DHT22;55069;51.568;4.656;2023-04-24T01:32:53;9.46;91.69
68257;DHT22;55069;51.568;4.656;2023-04-24T01:35:20;9.40;91.79
68257;DHT22;55069;51.568;4.656;2023-04-24T01:37:45;9.38;91.73
68257;DHT22;55069;51.568;4.656;2023-04-24T01:40:11;9.40;91.95
68257;DHT22;55069;51.568;4.656;2023-04-24T01:42:37;9.40;91.95
68257;DHT22;55069;51.568;4.656;2023-04-24T01:45:04;9.39;91.53
68257;DHT22;55069;51.568;4.656;2023-04-24T01:47:31;9.43;91.95
68257;DHT22;55069;51.568;4.656;2023-04-24T01:49:57;9.42;91.67
68257;DHT22;55069;51.568;4.656;2023-04-24T01:52:23;9.34;91.40
68257;DHT22;55069;51.568;4.656;2023-04-24T01:54:49;9.34;91.56
68257;DHT22;55069;51.568;4.656;2023-04-24T01:57:16;9.35;91.89
68257;DHT22;55069;51.568;4.656;2023-04-24T01:59:42;9.36;91.69
68257;DHT22;55069;51.568;4.656;2023-04-24T02:02:08;9.38;91.64
68257;DHT22;55069;51.568;4.656;2023-04-24T02:04:34;9.35;91.73
68257;DHT22;55069;51.568;4.656;2023-04-24T02:07:00;9.29;91.62
68257;DHT22;55069;51.568;4.656;2023-04-24T02:09:25;9.35;91.93
68257;DHT22;55069;51.568;4.656;2023-04-24T02:11:51;9.27;91.53
68257;DHT22;55069;51.568;4.656;2023-04-24T02:14:17;9.21;91.05
68257;DHT22;55069;51.568;4.656;2023-04-24T02:16:43;9.25;91.16
68257;DHT22;55069;51.568;4.656;2023-04-24T02:19:09;9.22;91.21
68257;DHT22;55069;51.568;4.656;2023-04-24T02:21:35;9.17;91.48
68257;DHT22;55069;51.568;4.656;2023-04-24T02:24:01;9.11;91.41
68257;DHT22;55069;51.568;4.656;2023-04-24T02:26:27;9.14;91.25
68257;DHT22;55069;51.568;4.656;2023-04-24T02:28:53;9.14;91.41
68257;DHT22;55069;51.568;4.656;2023-04-24T02:31:20;9.07;91.38
68257;DHT22;55069;51.568;4.656;2023-04-24T02:33:47;9.01;91.48
68257;DHT22;55069;51.568;4.656;2023-04-24T02:36:13;8.98;91.70
68257;DHT22;55069;51.568;4.656;2023-04-24T02:38:39;8.97;91.77
68257;DHT22;55069;51.568;4.656;2023-04-24T02:41:05;9.00;91.69
68257;DHT22;55069;51.568;4.656;2023-04-24T02:43:32;8.96;91.69
68257;DHT22;55069;51.568;4.656;2023-04-24T02:45:59;8.91;91.73
68257;DHT22;55069;51.568;4.656;2023-04-24T02:48:25;8.90;91.62
68257;DHT22;55069;51.568;4.656;2023-04-24T02:50:51;8.90;91.56
68257;DHT22;55069;51.568;4.656;2023-04-24T02:53:17;8.85;91.73
68257;DHT22;55069;51.568;4.656;2023-04-24T02:55:42;8.87;91.63
68257;DHT22;55069;51.568;4.656;2023-04-24T02:58:08;8.83;91.61
68257;DHT22;55069;51.568;4.656;2023-04-24T03:00:34;8.84;91.90
68257;DHT22;55069;51.568;4.656;2023-04-24T03:03:00;8.80;91.79
68257;DHT22;55069;51.568;4.656;2023-04-24T03:05:25;8.83;92.06
68257;DHT22;55069;51.568;4.656;2023-04-24T03:07:52;8.77;92.10
68257;DHT22;55069;51.568;4.656;2023-04-24T03:10:20;8.80;92.23
68257;DHT22;55069;51.568;4.656;2023-04-24T03:12:48;8.79;92.34
68257;DHT22;55069;51.568;4.656;2023-04-24T03:15:13;8.79;92.45
68257;DHT22;55069;51.568;4.656;2023-04-24T03:17:39;8.83;92.60
68257;DHT22;55069;51.568;4.656;2023-04-24T03:20:05;8.83;92.62
68257;DHT22;55069;51.568;4.656;2023-04-24T03:22:31;8.83;92.46
68257;DHT22;55069;51.568;4.656;2023-04-24T03:24:58;8.84;92.70
68257;DHT22;55069;51.568;4.656;2023-04-24T03:27:24;8.85;92.92
68257;DHT22;55069;51.568;4.656;2023-04-24T03:29:56;8.83;93.16
68257;DHT22;55069;51.568;4.656;2023-04-24T03:32:27;8.81;93.46
68257;DHT22;55069;51.568;4.656;2023-04-24T03:34:52;8.80;93.73
68257;DHT22;55069;51.568;4.656;2023-04-24T03:37:19;8.83;93.98
68257;DHT22;55069;51.568;4.656;2023-04-24T03:39:53;8.85;94.04
68257;DHT22;55069;51.568;4.656;2023-04-24T03:42:23;8.87;94.14
68257;DHT22;55069;51.568;4.656;2023-04-24T03:44:51;8.91;94.34
68257;DHT22;55069;51.568;4.656;2023-04-24T03:47:20;8.90;94.50
68257;DHT22;55069;51.568;4.656;2023-04-24T03:49:47;8.91;94.46
68257;DHT22;55069;51.568;4.656;2023-04-24T03:52:13;8.87;94.27
68257;DHT22;55069;51.568;4.656;2023-04-24T03:54:38;8.87;93.17
68257;DHT22;55069;51.568;4.656;2023-04-24T03:57:04;8.84;93.14
68257;DHT22;55069;51.568;4.656;2023-04-24T03:59:32;8.83;93.13
68257;DHT22;55069;51.568;4.656;2023-04-24T04:02:07;8.84;93.34
68257;DHT22;55069;51.568;4.656;2023-04-24T04:04:33;8.81;93.55
68257;DHT22;55069;51.568;4.656;2023-04-24T04:06:59;8.80;93.58
68257;DHT22;55069;51.568;4.656;2023-04-24T04:09:28;8.80;93.84
68257;DHT22;55069;51.568;4.656;2023-04-24T04:11:54;8.81;94.22
68257;DHT22;55069;51.568;4.656;2023-04-24T04:14:21;8.79;94.38
68257;DHT22;55069;51.568;4.656;2023-04-24T04:16:47;8.83;94.39
68257;DHT22;55069;51.568;4.656;2023-04-24T04:19:13;8.81;93.85
68257;DHT22;55069;51.568;4.656;2023-04-24T04:21:39;8.77;93.16
68257;DHT22;55069;51.568;4.656;2023-04-24T04:24:13;8.71;92.72
68257;DHT22;55069;51.568;4.656;2023-04-24T04:26:43;8.70;92.56
68257;DHT22;55069;51.568;4.656;2023-04-24T04:29:16;8.67;92.65
68257;DHT22;55069;51.568;4.656;2023-04-24T04:31:42;8.63;92.74
68257;DHT22;55069;51.568;4.656;2023-04-24T04:34:14;8.59;92.90
68257;DHT22;55069;51.568;4.656;2023-04-24T04:36:41;8.57;93.02
68257;DHT22;55069;51.568;4.656;2023-04-24T04:39:20;8.52;92.85
68257;DHT22;55069;51.568;4.656;2023-04-24T04:41:53;8.49;92.59
68257;DHT22;55069;51.568;4.656;2023-04-24T04:44:21;8.48;92.77
68257;DHT22;55069;51.568;4.656;2023-04-24T04:46:47;8.43;93.16
68257;DHT22;55069;51.568;4.656;2023-04-24T04:49:22;8.38;92.92
68257;DHT22;55069;51.568;4.656;2023-04-24T04:51:50;8.33;93.03
68257;DHT22;55069;51.568;4.656;2023-04-24T04:54:16;8.31;93.03
68257;DHT22;55069;51.568;4.656;2023-04-24T04:56:43;8.31;93.20
68257;DHT22;55069;51.568;4.656;2023-04-24T04:59:09;8.31;92.74
68257;DHT22;55069;51.568;4.656;2023-04-24T05:01:37;8.32;92.76
68257;DHT22;55069;51.568;4.656;2023-04-24T05:04:05;8.28;92.91
68257;DHT22;55069;51.568;4.656;2023-04-24T05:06:31;8.28;92.77
68257;DHT22;55069;51.568;4.656;2023-04-24T05:08:56;8.29;93.08
68257;DHT22;55069;51.568;4.656;2023-04-24T05:11:32;8.26;93.40
68257;DHT22;55069;51.568;4.656;2023-04-24T05:14:00;8.26;92.98
68257;DHT22;55069;51.568;4.656;2023-04-24T05:16:34;8.24;93.23
68257;DHT22;55069;51.568;4.656;2023-04-24T05:19:02;8.25;93.14
68257;DHT22;55069;51.568;4.656;2023-04-24T05:21:33;8.24;93.14
68257;DHT22;55069;51.568;4.656;2023-04-24T05:23:59;8.24;93.15
68257;DHT22;55069;51.568;4.656;2023-04-24T05:26:43;8.22;93.36
68257;DHT22;55069;51.568;4.656;2023-04-24T05:29:09;8.20;93.15
68257;DHT22;55069;51.568;4.656;2023-04-24T05:31:35;8.21;93.09
68257;DHT22;55069;51.568;4.656;2023-04-24T05:34:01;8.20;93.39
68257;DHT22;55069;51.568;4.656;2023-04-24T05:36:26;8.16;93.50
68257;DHT22;55069;51.568;4.656;2023-04-24T05:38:52;8.16;93.21
68257;DHT22;55069;51.568;4.656;2023-04-24T05:41:19;8.18;92.98
68257;DHT22;55069;51.568;4.656;2023-04-24T05:43:45;8.18;92.97
68257;DHT22;55069;51.568;4.656;2023-04-24T05:46:11;8.24;92.98
68257;DHT22;55069;51.568;4.656;2023-04-24T05:48:38;8.25;92.94
68257;DHT22;55069;51.568;4.656;2023-04-24T05:51:04;8.22;93.00
68257;DHT22;55069;51.568;4.656;2023-04-24T05:53:30;8.24;93.01
68257;DHT22;55069;51.568;4.656;2023-04-24T05:55:56;8.26;92.94
68257;DHT22;55069;51.568;4.656;2023-04-24T05:58:22;8.28;93.18
68257;DHT22;55069;51.568;4.656;2023-04-24T06:00:48;8.31;93.15
68257;DHT22;55069;51.568;4.656;2023-04-24T06:03:16;8.29;93.19
68257;DHT22;55069;51.568;4.656;2023-04-24T06:05:42;8.29;93.26
68257;DHT22;55069;51.568;4.656;2023-04-24T06:08:07;8.28;93.26
68257;DHT22;55069;51.568;4.656;2023-04-24T06:10:37;8.28;93.04
68257;DHT22;55069;51.568;4.656;2023-04-24T06:13:04;8.25;93.20
68257;DHT22;55069;51.568;4.656;2023-04-24T06:15:32;8.25;93.44
68257;DHT22;55069;51.568;4.656;2023-04-24T06:18:03;8.26;93.05
68257;DHT22;55069;51.568;4.656;2023-04-24T06:20:29;8.26;92.89
68257;DHT22;55069;51.568;4.656;2023-04-24T06:22:55;8.26;92.96
68257;DHT22;55069;51.568;4.656;2023-04-24T06:25:20;8.29;92.93
68257;DHT22;55069;51.568;4.656;2023-04-24T06:27:46;8.29;92.98
68257;DHT22;55069;51.568;4.656;2023-04-24T06:30:12;8.28;92.85
68257;DHT22;55069;51.568;4.656;2023-04-24T06:32:38;8.25;92.36
68257;DHT22;55069;51.568;4.656;2023-04-24T06:35:04;8.24;92.37
68257;DHT22;55069;51.568;4.656;2023-04-24T06:37:29;8.22;92.31
68257;DHT22;55069;51.568;4.656;2023-04-24T06:39:55;8.21;91.92
68257;DHT22;55069;51.568;4.656;2023-04-24T06:42:21;8.24;92.07
68257;DHT22;55069;51.568;4.656;2023-04-24T06:44:48;8.21;91.97
68257;DHT22;55069;51.568;4.656;2023-04-24T06:47:14;8.22;92.40
68257;DHT22;55069;51.568;4.656;2023-04-24T06:49:41;8.24;92.10
68257;DHT22;55069;51.568;4.656;2023-04-24T06:52:07;8.22;91.83
68257;DHT22;55069;51.568;4.656;2023-04-24T06:54:32;8.28;92.01
68257;DHT22;55069;51.568;4.656;2023-04-24T06:56:59;8.26;91.94
68257;DHT22;55069;51.568;4.656;2023-04-24T06:59:26;8.28;91.57
68257;DHT22;55069;51.568;4.656;2023-04-24T07:01:52;8.31;91.55
68257;DHT22;55069;51.568;4.656;2023-04-24T07:04:18;8.36;91.25
68257;DHT22;55069;51.568;4.656;2023-04-24T07:06:47;8.32;91.25
68257;DHT22;55069;51.568;4.656;2023-04-24T07:09:14;8.35;91.18
68257;DHT22;55069;51.568;4.656;2023-04-24T07:11:41;8.36;91.05
68257;DHT22;55069;51.568;4.656;2023-04-24T07:14:07;8.41;91.14
68257;DHT22;55069;51.568;4.656;2023-04-24T07:16:34;8.36;90.99
68257;DHT22;55069;51.568;4.656;2023-04-24T07:18:59;8.31;91.33
68257;DHT22;55069;51.568;4.656;2023-04-24T07:21:25;8.24;91.40
68257;DHT22;55069;51.568;4.656;2023-04-24T07:23:52;8.22;91.13
68257;DHT22;55069;51.568;4.656;2023-04-24T07:26:18;8.20;91.09
68257;DHT22;55069;51.568;4.656;2023-04-24T07:28:43;8.22;91.14
68257;DHT22;55069;51.568;4.656;2023-04-24T07:31:11;8.24;90.13
68257;DHT22;55069;51.568;4.656;2023-04-24T07:33:37;8.28;89.06
68257;DHT22;55069;51.568;4.656;2023-04-24T07:36:03;8.29;88.90
68257;DHT22;55069;51.568;4.656;2023-04-24T07:38:32;8.29;89.55
68257;DHT22;55069;51.568;4.656;2023-04-24T07:40:57;8.29;89.45
68257;DHT22;55069;51.568;4.656;2023-04-24T07:43:23;8.33;89.22
68257;DHT22;55069;51.568;4.656;2023-04-24T07:45:52;8.38;89.76
68257;DHT22;55069;51.568;4.656;2023-04-24T07:48:17;8.41;89.51
68257;DHT22;55069;51.568;4.656;2023-04-24T07:50:44;8.45;89.42
68257;DHT22;55069;51.568;4.656;2023-04-24T07:53:10;8.49;88.90
68257;DHT22;55069;51.568;4.656;2023-04-24T07:55:36;8.62;89.04
68257;DHT22;55069;51.568;4.656;2023-04-24T07:58:02;8.67;88.71
68257;DHT22;55069;51.568;4.656;2023-04-24T08:00:27;8.71;87.88
68257;DHT22;55069;51.568;4.656;2023-04-24T08:02:53;8.69;86.78
68257;DHT22;55069;51.568;4.656;2023-04-24T08:05:19;8.60;87.55
68257;DHT22;55069;51.568;4.656;2023-04-24T08:07:45;8.59;87.82
68257;DHT22;55069;51.568;4.656;2023-04-24T08:10:14;8.63;88.82
68257;DHT22;55069;51.568;4.656;2023-04-24T08:12:40;8.64;87.79
68257;DHT22;55069;51.568;4.656;2023-04-24T08:15:06;8.69;87.36
68257;DHT22;55069;51.568;4.656;2023-04-24T08:17:34;8.70;87.31
68257;DHT22;55069;51.568;4.656;2023-04-24T08:20:01;8.71;87.87
68257;DHT22;55069;51.568;4.656;2023-04-24T08:22:27;8.76;88.71
68257;DHT22;55069;51.568;4.656;2023-04-24T08:24:53;8.88;88.04
68257;DHT22;55069;51.568;4.656;2023-04-24T08:27:19;8.98;86.91
68257;DHT22;55069;51.568;4.656;2023-04-24T08:29:45;9.04;86.29
68257;DHT22;55069;51.568;4.656;2023-04-24T08:32:10;9.07;86.19
68257;DHT22;55069;51.568;4.656;2023-04-24T08:34:36;9.05;85.89
68257;DHT22;55069;51.568;4.656;2023-04-24T08:37:02;9.03;85.18
68257;DHT22;55069;51.568;4.656;2023-04-24T08:39:28;8.98;84.47
68257;DHT22;55069;51.568;4.656;2023-04-24T08:41:55;9.00;85.51
68257;DHT22;55069;51.568;4.656;2023-04-24T08:44:21;8.94;83.80
68257;DHT22;55069;51.568;4.656;2023-04-24T08:46:48;8.94;82.17
68257;DHT22;55069;51.568;4.656;2023-04-24T08:49:15;9.01;83.00
68257;DHT22;55069;51.568;4.656;2023-04-24T08:51:44;9.03;82.77
68257;DHT22;55069;51.568;4.656;2023-04-24T08:54:12;9.05;83.05
68257;DHT22;55069;51.568;4.656;2023-04-24T08:56:40;9.10;82.29
68257;DHT22;55069;51.568;4.656;2023-04-24T08:59:07;9.11;82.47
68257;DHT22;55069;51.568;4.656;2023-04-24T09:01:34;9.19;81.42
68257;DHT22;55069;51.568;4.656;2023-04-24T09:04:03;9.48;82.48
68257;DHT22;55069;51.568;4.656;2023-04-24T09:06:30;9.60;81.44
68257;DHT22;55069;51.568;4.656;2023-04-24T09:08:57;9.55;81.03
68257;DHT22;55069;51.568;4.656;2023-04-24T09:11:26;9.80;80.03
68257;DHT22;55069;51.568;4.656;2023-04-24T09:13:53;9.97;81.88
68257;DHT22;55069;51.568;4.656;2023-04-24T09:16:20;9.80;78.50
68257;DHT22;55069;51.568;4.656;2023-04-24T09:18:46;9.67;77.86
68257;DHT22;55069;51.568;4.656;2023-04-24T09:21:12;9.84;78.03
68257;DHT22;55069;51.568;4.656;2023-04-24T09:23:38;9.90;75.98
68257;DHT22;55069;51.568;4.656;2023-04-24T09:26:04;10.01;74.83
68257;DHT22;55069;51.568;4.656;2023-04-24T09:28:32;9.79;74.14
68257;DHT22;55069;51.568;4.656;2023-04-24T09:33:29;9.73;76.18
68257;DHT22;55069;51.568;4.656;2023-04-24T09:35:55;9.70;75.88
68257;DHT22;55069;51.568;4.656;2023-04-24T09:41:03;9.36;75.68
68257;DHT22;55069;51.568;4.656;2023-04-24T09:43:30;9.36;75.69
68257;DHT22;55069;51.568;4.656;2023-04-24T09:45:58;9.46;76.85
68257;DHT22;55069;51.568;4.656;2023-04-24T09:48:35;9.45;77.06
68257;DHT22;55069;51.568;4.656;2023-04-24T09:51:02;9.36;77.13
68257;DHT22;55069;51.568;4.656;2023-04-24T09:53:29;9.35;78.58
68257;DHT22;55069;51.568;4.656;2023-04-24T09:55:55;9.25;79.01
68257;DHT22;55069;51.568;4.656;2023-04-24T09:58:28;9.31;78.24
68257;DHT22;55069;51.568;4.656;2023-04-24T10:00:56;9.67;79.52
68257;DHT22;55069;51.568;4.656;2023-04-24T10:03:25;9.77;77.72
68257;DHT22;55069;51.568;4.656;2023-04-24T10:05:52;9.63;77.24
68257;DHT22;55069;51.568;4.656;2023-04-24T10:08:19;9.57;75.59
68257;DHT22;55069;51.568;4.656;2023-04-24T10:10:45;9.57;73.51
68257;DHT22;55069;51.568;4.656;2023-04-24T10:13:12;9.67;74.24
68257;DHT22;55069;51.568;4.656;2023-04-24T10:15:40;9.86;74.60
68257;DHT22;55069;51.568;4.656;2023-04-24T10:18:07;10.07;76.20
68257;DHT22;55069;51.568;4.656;2023-04-24T10:20:36;9.90;76.26
68257;DHT22;55069;51.568;4.656;2023-04-24T10:23:03;10.01;76.29
68257;DHT22;55069;51.568;4.656;2023-04-24T10:25:30;10.21;75.98
68257;DHT22;55069;51.568;4.656;2023-04-24T10:27:57;9.91;74.91
68257;DHT22;55069;51.568;4.656;2023-04-24T10:30:26;9.87;74.56
68257;DHT22;55069;51.568;4.656;2023-04-24T10:32:52;10.17;74.79
68257;DHT22;55069;51.568;4.656;2023-04-24T10:35:18;10.00;74.25
68257;DHT22;55069;51.568;4.656;2023-04-24T10:37:48;9.94;74.17
68257;DHT22;55069;51.568;4.656;2023-04-24T10:40:18;9.87;75.03
68257;DHT22;55069;51.568;4.656;2023-04-24T10:42:47;9.79;74.98
68257;DHT22;55069;51.568;4.656;2023-04-24T10:45:21;9.65;75.58
68257;DHT22;55069;51.568;4.656;2023-04-24T10:48:02;9.50;75.34
68257;DHT22;55069;51.568;4.656;2023-04-24T10:50:29;9.67;76.20
68257;DHT22;55069;51.568;4.656;2023-04-24T10:53:06;9.72;75.91
68257;DHT22;55069;51.568;4.656;2023-04-24T10:55:50;9.93;76.17
68257;DHT22;55069;51.568;4.656;2023-04-24T10:58:17;9.98;75.49
68257;DHT22;55069;51.568;4.656;2023-04-24T11:00:57;9.89;75.48
68257;DHT22;55069;51.568;4.656;2023-04-24T11:03:25;9.93;75.38
68257;DHT22;55069;51.568;4.656;2023-04-24T11:06:05;10.05;74.91
68257;DHT22;55069;51.568;4.656;2023-04-24T11:08:39;10.04;75.45
68257;DHT22;55069;51.568;4.656;2023-04-24T11:19:10;10.15;73.59
68257;DHT22;55069;51.568;4.656;2023-04-24T11:22:26;9.76;74.06
68257;DHT22;55069;51.568;4.656;2023-04-24T11:24:38;10.15;74.04
68257;DHT22;55069;51.568;4.656;2023-04-24T11:27:13;10.13;74.73
68257;DHT22;55069;51.568;4.656;2023-04-24T11:30:00;10.22;74.15
68257;DHT22;55069;51.568;4.656;2023-04-24T11:35:23;10.44;72.47
68257;DHT22;55069;51.568;4.656;2023-04-24T11:37:54;10.27;72.27
68257;DHT22;55069;51.568;4.656;2023-04-24T11:40:21;10.08;73.23
68257;DHT22;55069;51.568;4.656;2023-04-24T11:42:52;10.01;73.55
68257;DHT22;55069;51.568;4.656;2023-04-24T11:45:22;9.86;74.76
68257;DHT22;55069;51.568;4.656;2023-04-24T11:47:48;9.89;75.05
68257;DHT22;55069;51.568;4.656;2023-04-24T11:50:15;9.76;75.34
68257;DHT22;55069;51.568;4.656;2023-04-24T11:52:43;9.79;75.32
68257;DHT22;55069;51.568;4.656;2023-04-24T11:57:45;9.50;77.79
68257;DHT22;55069;51.568;4.656;2023-04-24T12:02:44;9.76;78.23
68257;DHT22;55069;51.568;4.656;2023-04-24T12:05:22;10.04;77.00
68257;DHT22;55069;51.568;4.656;2023-04-24T12:07:48;10.40;76.62
68257;DHT22;55069;51.568;4.656;2023-04-24T12:10:18;10.35;75.12
68257;DHT22;55069;51.568;4.656;2023-04-24T12:12:45;10.27;76.50
68257;DHT22;55069;51.568;4.656;2023-04-24T12:15:11;9.93;78.36
68257;DHT22;55069;51.568;4.656;2023-04-24T12:17:41;9.48;82.08
68257;DHT22;55069;51.568;4.656;2023-04-24T12:20:08;9.05;84.48
68257;DHT22;55069;51.568;4.656;2023-04-24T12:22:51;8.73;85.26
68257;DHT22;55069;51.568;4.656;2023-04-24T12:25:21;8.87;86.02
68257;DHT22;55069;51.568;4.656;2023-04-24T12:27:52;8.96;85.17
68257;DHT22;55069;51.568;4.656;2023-04-24T12:30:19;8.97;83.74
68257;DHT22;55069;51.568;4.656;2023-04-24T12:32:46;9.22;82.73
68257;DHT22;55069;51.568;4.656;2023-04-24T12:35:13;9.24;80.75
68257;DHT22;55069;51.568;4.656;2023-04-24T12:37:41;9.40;80.91
68257;DHT22;55069;51.568;4.656;2023-04-24T12:40:12;9.72;81.02
68257;DHT22;55069;51.568;4.656;2023-04-24T12:42:49;10.01;80.44
68257;DHT22;55069;51.568;4.656;2023-04-24T12:45:16;10.01;78.80
68257;DHT22;55069;51.568;4.656;2023-04-24T12:47:43;9.63;79.02
68257;DHT22;55069;51.568;4.656;2023-04-24T12:50:11;9.39;79.24
68257;DHT22;55069;51.568;4.656;2023-04-24T12:52:38;9.36;79.13
68257;DHT22;55069;51.568;4.656;2023-04-24T12:55:04;9.65;78.85
68257;DHT22;55069;51.568;4.656;2023-04-24T12:57:34;9.80;78.32
68257;DHT22;55069;51.568;4.656;2023-04-24T13:00:00;9.86;78.67
68257;DHT22;55069;51.568;4.656;2023-04-24T13:02:29;9.84;78.87
68257;DHT22;55069;51.568;4.656;2023-04-24T13:04:58;9.84;78.56
68257;DHT22;55069;51.568;4.656;2023-04-24T13:07:25;9.62;80.16
68257;DHT22;55069;51.568;4.656;2023-04-24T13:09:52;9.56;81.19
68257;DHT22;55069;51.568;4.656;2023-04-24T13:12:18;8.96;80.08
68257;DHT22;55069;51.568;4.656;2023-04-24T13:14:45;8.87;79.04
68257;DHT22;55069;51.568;4.656;2023-04-24T13:17:11;8.73;77.95
68257;DHT22;55069;51.568;4.656;2023-04-24T13:19:40;8.70;79.47
68257;DHT22;55069;51.568;4.656;2023-04-24T13:22:06;8.69;79.98
68257;DHT22;55069;51.568;4.656;2023-04-24T13:24:32;8.63;80.64
68257;DHT22;55069;51.568;4.656;2023-04-24T13:26:59;8.71;82.31
68257;DHT22;55069;51.568;4.656;2023-04-24T13:29:26;8.52;81.47
68257;DHT22;55069;51.568;4.656;2023-04-24T13:31:52;8.77;80.66
68257;DHT22;55069;51.568;4.656;2023-04-24T13:34:20;9.00;80.55
68257;DHT22;55069;51.568;4.656;2023-04-24T13:36:46;9.38;80.35
68257;DHT22;55069;51.568;4.656;2023-04-24T13:39:12;9.39;80.33
68257;DHT22;55069;51.568;4.656;2023-04-24T13:41:38;9.39;78.69
68257;DHT22;55069;51.568;4.656;2023-04-24T13:44:04;9.82;79.78
68257;DHT22;55069;51.568;4.656;2023-04-24T13:46:30;9.67;77.14
68257;DHT22;55069;51.568;4.656;2023-04-24T13:48:56;9.82;75.51
68257;DHT22;55069;51.568;4.656;2023-04-24T13:51:24;9.96;75.88
68257;DHT22;55069;51.568;4.656;2023-04-24T13:53:52;9.72;73.25
68257;DHT22;55069;51.568;4.656;2023-04-24T13:56:18;9.84;74.38
68257;DHT22;55069;51.568;4.656;2023-04-24T13:58:45;10.08;74.14
68257;DHT22;55069;51.568;4.656;2023-04-24T14:01:12;10.27;74.00
68257;DHT22;55069;51.568;4.656;2023-04-24T14:03:38;10.10;73.92
68257;DHT22;55069;51.568;4.656;2023-04-24T14:06:04;10.08;73.29
68257;DHT22;55069;51.568;4.656;2023-04-24T14:08:29;10.48;74.16
68257;DHT22;55069;51.568;4.656;2023-04-24T14:10:55;9.77;72.98
68257;DHT22;55069;51.568;4.656;2023-04-24T14:13:21;9.97;72.84
68257;DHT22;55069;51.568;4.656;2023-04-24T14:15:47;10.05;72.71
68257;DHT22;55069;51.568;4.656;2023-04-24T14:18:13;10.15;73.24
68257;DHT22;55069;51.568;4.656;2023-04-24T14:20:38;10.10;72.50
68257;DHT22;55069;51.568;4.656;2023-04-24T14:23:04;9.96;71.21
68257;DHT22;55069;51.568;4.656;2023-04-24T14:25:30;10.20;72.12
68257;DHT22;55069;51.568;4.656;2023-04-24T14:27:56;10.31;71.30
68257;DHT22;55069;51.568;4.656;2023-04-24T14:30:22;10.14;71.76
68257;DHT22;55069;51.568;4.656;2023-04-24T14:32:48;10.27;71.12
68257;DHT22;55069;51.568;4.656;2023-04-24T14:35:14;10.82;71.96
68257;DHT22;55069;51.568;4.656;2023-04-24T14:37:40;10.92;71.71
68257;DHT22;55069;51.568;4.656;2023-04-24T14:40:07;10.84;72.15
68257;DHT22;55069;51.568;4.656;2023-04-24T14:42:34;10.76;72.59
68257;DHT22;55069;51.568;4.656;2023-04-24T14:45:00;10.72;71.55
68257;DHT22;55069;51.568;4.656;2023-04-24T14:47:26;10.72;72.31
68257;DHT22;55069;51.568;4.656;2023-04-24T14:49:52;10.40;72.11
68257;DHT22;55069;51.568;4.656;2023-04-24T14:52:17;10.41;72.92
68257;DHT22;55069;51.568;4.656;2023-04-24T14:54:43;10.48;73.42
68257;DHT22;55069;51.568;4.656;2023-04-24T14:57:09;10.08;73.80
68257;DHT22;55069;51.568;4.656;2023-04-24T14:59:35;10.17;74.23
68257;DHT22;55069;51.568;4.656;2023-04-24T15:02:01;10.00;73.66
68257;DHT22;55069;51.568;4.656;2023-04-24T15:04:28;10.11;73.68
68257;DHT22;55069;51.568;4.656;2023-04-24T15:06:54;10.25;72.42
68257;DHT22;55069;51.568;4.656;2023-04-24T15:09:21;10.24;71.22
68257;DHT22;55069;51.568;4.656;2023-04-24T15:11:48;10.45;69.29
68257;DHT22;55069;51.568;4.656;2023-04-24T15:14:14;10.55;68.04
68257;DHT22;55069;51.568;4.656;2023-04-24T15:16:40;10.90;68.56
68257;DHT22;55069;51.568;4.656;2023-04-24T15:19:06;10.99;67.14
68257;DHT22;55069;51.568;4.656;2023-04-24T15:21:32;11.20;67.39
68257;DHT22;55069;51.568;4.656;2023-04-24T15:23:58;11.58;67.28
68257;DHT22;55069;51.568;4.656;2023-04-24T15:26:24;11.76;67.99
68257;DHT22;55069;51.568;4.656;2023-04-24T15:28:51;11.92;67.55
68257;DHT22;55069;51.568;4.656;2023-04-24T15:31:18;12.44;66.95
68257;DHT22;55069;51.568;4.656;2023-04-24T15:33:44;12.48;67.32
68257;DHT22;55069;51.568;4.656;2023-04-24T15:36:10;12.37;67.80
68257;DHT22;55069;51.568;4.656;2023-04-24T15:38:35;12.09;68.76
68257;DHT22;55069;51.568;4.656;2023-04-24T15:41:01;12.03;69.20
68257;DHT22;55069;51.568;4.656;2023-04-24T15:43:27;11.95;69.88
68257;DHT22;55069;51.568;4.656;2023-04-24T15:45:56;11.75;70.21
68257;DHT22;55069;51.568;4.656;2023-04-24T15:48:22;11.31;70.18
68257;DHT22;55069;51.568;4.656;2023-04-24T15:50:48;10.79;71.58
68257;DHT22;55069;51.568;4.656;2023-04-24T15:53:14;10.92;73.02
68257;DHT22;55069;51.568;4.656;2023-04-24T15:55:47;10.76;70.97
68257;DHT22;55069;51.568;4.656;2023-04-24T15:58:13;10.82;68.71
68257;DHT22;55069;51.568;4.656;2023-04-24T16:00:39;11.18;67.39
68257;DHT22;55069;51.568;4.656;2023-04-24T16:03:05;11.74;67.15
68257;DHT22;55069;51.568;4.656;2023-04-24T16:05:30;11.75;66.33